createdAt,value
2022-11-30T00:01:50.152Z,18.63
2022-11-30T00:04:18.007Z,16.50
2022-11-30T00:06:47.232Z,16.30
2022-11-30T00:09:15.077Z,17.80
2022-11-30T00:11:42.950Z,18.53
2022-11-30T00:14:10.801Z,16.50
2022-11-30T00:16:38.729Z,16.33
2022-11-30T00:19:06.594Z,16.13
2022-11-30T00:21:34.437Z,16.83
2022-11-30T00:24:03.661Z,16.40
2022-11-30T00:26:31.715Z,15.77
2022-11-30T00:28:59.572Z,16.00
2022-11-30T00:31:27.438Z,16.90
2022-11-30T00:33:55.292Z,15.80
2022-11-30T00:36:23.783Z,16.20
2022-11-30T00:38:52.765Z,16.33
2022-11-30T00:41:22.143Z,16.90
2022-11-30T00:43:50.506Z,17.20
2022-11-30T00:46:18.659Z,17.10
2022-11-30T00:48:46.905Z,16.50
2022-11-30T00:51:15.172Z,16.50
2022-11-30T00:53:43.730Z,17.30
2022-11-30T00:56:12.054Z,15.70
2022-11-30T00:58:41.698Z,16.43
2022-11-30T01:01:10.035Z,15.37
2022-11-30T01:03:38.292Z,15.20
2022-11-30T01:06:07.507Z,16.50
2022-11-30T01:08:35.842Z,17.00
2022-11-30T01:11:09.568Z,14.27
2022-11-30T01:13:37.433Z,16.07
2022-11-30T01:16:12.470Z,15.83
2022-11-30T01:18:40.435Z,15.07
2022-11-30T01:21:09.191Z,14.97
2022-11-30T01:23:37.403Z,14.90
2022-11-30T01:26:05.267Z,15.40
2022-11-30T01:28:33.147Z,16.17
2022-11-30T01:31:02.600Z,15.80
2022-11-30T01:33:32.013Z,15.33
2022-11-30T01:36:01.648Z,15.20
2022-11-30T01:38:33.289Z,16.40
2022-11-30T01:41:01.167Z,15.93
2022-11-30T01:43:39.600Z,16.73
2022-11-30T01:46:18.394Z,16.43
2022-11-30T01:48:52.091Z,16.07
2022-11-30T01:51:20.151Z,15.93
2022-11-30T01:53:48.356Z,14.97
2022-11-30T01:56:17.672Z,15.77
2022-11-30T01:58:45.790Z,16.63
2022-11-30T02:01:13.701Z,15.40
2022-11-30T02:03:47.264Z,14.97
2022-11-30T02:06:16.694Z,14.40
2022-11-30T02:08:44.945Z,14.57
2022-11-30T02:11:15.542Z,14.80
2022-11-30T02:13:57.691Z,15.10
2022-11-30T02:16:31.618Z,14.83
2022-11-30T02:19:11.623Z,15.80
2022-11-30T02:21:47.152Z,15.30
2022-11-30T02:24:38.036Z,14.60
2022-11-30T02:27:19.539Z,14.23
2022-11-30T02:29:54.311Z,14.47
2022-11-30T02:32:27.013Z,15.47
2022-11-30T02:34:57.694Z,16.30
2022-11-30T02:37:26.836Z,13.60
2022-11-30T02:39:54.675Z,16.03
2022-11-30T02:42:22.816Z,15.97
2022-11-30T02:44:54.475Z,15.60
2022-11-30T02:47:28.474Z,16.67
2022-11-30T02:50:01.184Z,15.80
2022-11-30T02:52:31.069Z,17.87
2022-11-30T02:55:02.617Z,17.80
2022-11-30T02:57:30.853Z,19.20
2022-11-30T03:00:01.593Z,16.37
2022-11-30T03:02:29.473Z,17.87
2022-11-30T03:04:57.339Z,17.80
2022-11-30T03:07:25.269Z,14.67
2022-11-30T03:09:53.151Z,16.87
2022-11-30T03:12:21.038Z,14.80
2022-11-30T03:14:49.204Z,14.00
2022-11-30T03:17:18.844Z,16.60
2022-11-30T03:19:46.716Z,14.57
2022-11-30T03:22:14.592Z,14.00
2022-11-30T03:24:42.462Z,14.27
2022-11-30T03:27:10.323Z,14.20
2022-11-30T03:29:38.324Z,14.37
2022-11-30T03:32:06.756Z,13.60
2022-11-30T03:34:36.120Z,14.23
2022-11-30T03:37:04.059Z,14.57
2022-11-30T03:39:31.928Z,15.30
2022-11-30T03:41:59.779Z,14.83
2022-11-30T03:44:27.643Z,13.97
2022-11-30T03:46:55.531Z,14.10
2022-11-30T03:49:23.387Z,13.33
2022-11-30T03:51:52.601Z,13.33
2022-11-30T03:54:21.643Z,14.30
2022-11-30T03:56:49.522Z,13.60
2022-11-30T03:59:17.400Z,14.57
2022-11-30T04:01:45.303Z,13.00
2022-11-30T04:04:13.615Z,14.90
2022-11-30T04:06:41.570Z,13.10
2022-11-30T04:09:12.023Z,13.13
2022-11-30T04:11:39.883Z,12.60
2022-11-30T04:14:07.835Z,11.77
2022-11-30T04:16:35.720Z,12.57
2022-11-30T04:19:03.722Z,12.13
2022-11-30T04:21:31.717Z,12.03
2022-11-30T04:23:59.563Z,13.40
2022-11-30T04:26:28.759Z,13.10
2022-11-30T04:28:56.996Z,12.10
2022-11-30T04:31:24.898Z,12.27
2022-11-30T04:33:54.706Z,12.27
2022-11-30T04:36:22.928Z,12.37
2022-11-30T04:38:50.947Z,11.40
2022-11-30T04:41:18.801Z,11.77
2022-11-30T04:43:48.052Z,11.50
2022-11-30T04:46:16.000Z,12.00
2022-11-30T04:48:43.927Z,10.20
2022-11-30T04:51:11.778Z,10.73
2022-11-30T04:53:39.740Z,11.83
2022-11-30T04:56:08.496Z,11.00
2022-11-30T04:58:38.620Z,11.00
2022-11-30T05:01:08.624Z,10.33
2022-11-30T05:03:36.592Z,11.23
2022-11-30T05:06:05.141Z,10.67
2022-11-30T05:08:33.038Z,9.87
2022-11-30T05:11:00.930Z,11.37
2022-11-30T05:13:28.961Z,11.63
2022-11-30T05:15:56.926Z,10.70
2022-11-30T05:18:26.314Z,11.40
2022-11-30T05:20:54.479Z,10.60
2022-11-30T05:23:23.016Z,11.30
2022-11-30T05:25:51.055Z,11.57
2022-11-30T05:28:18.954Z,11.50
2022-11-30T05:30:46.853Z,12.03
2022-11-30T05:33:14.733Z,10.90
2022-11-30T05:35:44.511Z,12.93
2022-11-30T05:38:12.443Z,13.23
2022-11-30T05:40:40.300Z,12.97
2022-11-30T05:43:08.151Z,13.23
2022-11-30T05:45:36.057Z,13.73
2022-11-30T05:48:03.937Z,11.30
2022-11-30T05:50:31.827Z,11.17
2022-11-30T05:53:01.279Z,12.00
2022-11-30T05:55:31.014Z,13.10
2022-11-30T05:57:58.912Z,12.87
2022-11-30T06:00:26.905Z,11.17
2022-11-30T06:02:58.317Z,11.40
2022-11-30T06:05:26.616Z,13.50
2022-11-30T06:07:54.609Z,13.83
2022-11-30T06:10:25.284Z,13.17
2022-11-30T06:12:53.182Z,13.33
2022-11-30T06:15:21.061Z,13.67
2022-11-30T06:17:48.897Z,13.60
2022-11-30T06:20:17.112Z,13.17
2022-11-30T06:22:46.671Z,12.00
2022-11-30T06:25:14.936Z,12.43
2022-11-30T06:27:44.552Z,11.40
2022-11-30T06:30:13.668Z,10.83
2022-11-30T06:32:41.527Z,11.00
2022-11-30T06:35:09.980Z,11.30
2022-11-30T06:37:38.015Z,11.20
2022-11-30T06:40:08.187Z,11.70
2022-11-30T06:42:37.247Z,11.23
2022-11-30T06:45:07.767Z,11.87
2022-11-30T06:47:35.891Z,11.57
2022-11-30T06:50:03.923Z,11.30
2022-11-30T06:52:32.529Z,11.17
2022-11-30T06:55:00.398Z,12.77
2022-11-30T06:57:29.098Z,11.63
2022-11-30T06:59:57.475Z,11.30
2022-11-30T07:02:26.696Z,11.07
2022-11-30T07:04:54.668Z,11.23
2022-11-30T07:07:22.610Z,11.03
2022-11-30T07:09:50.957Z,10.90
2022-11-30T07:12:19.093Z,10.63
2022-11-30T07:14:47.237Z,10.40
2022-11-30T07:17:15.354Z,9.90
2022-11-30T07:19:44.561Z,9.23
2022-11-30T07:22:12.457Z,8.90
2022-11-30T07:24:57.888Z,9.50
2022-11-30T07:27:25.918Z,9.40
2022-11-30T07:29:53.819Z,9.40
2022-11-30T07:32:21.670Z,9.10
2022-11-30T07:34:50.975Z,8.97
2022-11-30T07:37:19.168Z,8.93
2022-11-30T07:39:47.004Z,8.63
2022-11-30T07:42:14.889Z,9.20
2022-11-30T07:44:42.742Z,9.73
2022-11-30T07:47:10.775Z,9.57
2022-11-30T07:49:39.727Z,9.37
2022-11-30T07:52:09.084Z,8.90
2022-11-30T07:54:36.927Z,8.70
2022-11-30T07:57:04.852Z,8.43
2022-11-30T07:59:32.720Z,8.90
2022-11-30T08:02:01.540Z,8.10
2022-11-30T08:04:29.530Z,7.60
2022-11-30T08:06:57.451Z,8.77
2022-11-30T08:09:26.713Z,8.77
2022-11-30T08:11:54.572Z,8.50
2022-11-30T08:14:22.410Z,9.10
2022-11-30T08:16:50.298Z,9.73
2022-11-30T08:19:18.187Z,10.97
2022-11-30T08:21:46.052Z,9.00
2022-11-30T08:24:14.780Z,9.90
2022-11-30T08:26:44.091Z,9.10
2022-11-30T08:29:12.203Z,9.43
2022-11-30T08:31:40.587Z,8.93
2022-11-30T08:34:11.086Z,9.70
2022-11-30T08:36:40.309Z,9.67
2022-11-30T08:39:09.728Z,10.00
2022-11-30T08:41:39.077Z,9.57
2022-11-30T08:44:08.597Z,9.87
2022-11-30T08:46:53.401Z,9.10
2022-11-30T08:52:18.456Z,9.13
2022-11-30T08:54:48.561Z,10.33
2022-11-30T08:57:17.675Z,9.30
2022-11-30T08:59:47.339Z,8.83
2022-11-30T09:02:18.243Z,9.10
2022-11-30T09:04:47.586Z,9.47
2022-11-30T09:07:15.569Z,9.33
2022-11-30T09:09:43.451Z,9.40
2022-11-30T09:12:11.332Z,8.80
2022-11-30T09:14:39.192Z,8.97
2022-11-30T09:17:08.382Z,8.93
2022-11-30T09:19:36.231Z,8.43
2022-11-30T09:22:04.096Z,11.13
2022-11-30T09:24:31.967Z,11.03
2022-11-30T09:26:59.825Z,11.13
2022-11-30T09:29:27.912Z,9.60
2022-11-30T09:31:55.805Z,10.03
2022-11-30T09:34:25.006Z,8.60
2022-11-30T09:36:52.885Z,10.93
2022-11-30T09:39:20.756Z,11.53
2022-11-30T09:42:24.426Z,11.00
2022-11-30T09:45:01.086Z,9.53
2022-11-30T09:47:39.913Z,9.63
2022-11-30T09:50:15.505Z,10.80
2022-11-30T09:52:47.424Z,10.30
2022-11-30T09:55:23.838Z,12.07
2022-11-30T09:57:54.450Z,10.70
2022-11-30T10:00:24.526Z,10.60
2022-11-30T10:02:54.888Z,10.83
2022-11-30T10:05:28.249Z,10.27
2022-11-30T10:08:17.977Z,9.73
2022-11-30T10:10:53.098Z,11.20
2022-11-30T10:13:40.264Z,10.33
2022-11-30T10:16:17.787Z,9.87
2022-11-30T10:18:57.346Z,10.23
2022-11-30T10:21:40.464Z,9.80
2022-11-30T10:24:18.110Z,12.17
2022-11-30T10:26:53.885Z,10.63
2022-11-30T10:29:28.192Z,11.33
2022-11-30T10:31:59.888Z,12.00
2022-11-30T10:34:33.555Z,10.53
2022-11-30T10:37:11.118Z,10.83
2022-11-30T10:39:44.456Z,10.23
2022-11-30T10:42:18.918Z,10.77
2022-11-30T10:44:54.732Z,9.23
2022-11-30T10:47:27.215Z,8.70
2022-11-30T10:49:55.215Z,9.00
2022-11-30T10:52:28.103Z,9.33
2022-11-30T10:55:03.675Z,9.97
2022-11-30T10:57:34.046Z,8.97
2022-11-30T11:00:06.442Z,9.33
2022-11-30T11:02:41.260Z,8.13
2022-11-30T11:05:16.493Z,8.00
2022-11-30T11:07:51.846Z,8.23
2022-11-30T11:10:22.486Z,7.70
2022-11-30T11:12:52.818Z,7.70
2022-11-30T11:15:23.825Z,8.03
2022-11-30T11:17:52.644Z,7.90
2022-11-30T11:20:33.022Z,7.27
2022-11-30T11:23:03.863Z,8.40
2022-11-30T11:25:37.281Z,8.23
2022-11-30T11:28:09.625Z,7.67
2022-11-30T11:30:38.522Z,7.47
2022-11-30T11:33:20.360Z,8.40
2022-11-30T11:35:50.477Z,7.60
2022-11-30T11:38:26.142Z,7.27
2022-11-30T11:40:57.814Z,7.40
2022-11-30T11:43:28.432Z,7.73
2022-11-30T11:45:58.841Z,8.03
2022-11-30T11:48:37.011Z,7.57
2022-11-30T11:51:08.090Z,7.27
2022-11-30T11:53:47.411Z,6.80
2022-11-30T11:56:23.840Z,5.50
2022-11-30T11:58:57.429Z,6.17
2022-11-30T12:01:44.548Z,5.10
2022-11-30T12:04:40.930Z,5.03
2022-11-30T12:07:19.180Z,5.43
2022-11-30T12:10:35.573Z,4.93
2022-11-30T12:13:00.574Z,4.27
2022-11-30T12:15:34.967Z,4.83
2022-11-30T12:18:15.108Z,4.47
2022-11-30T12:20:54.496Z,4.30
2022-11-30T12:23:49.924Z,4.37
2022-11-30T12:26:27.953Z,4.30
2022-11-30T12:29:17.139Z,4.73
2022-11-30T12:31:56.816Z,4.10
2022-11-30T12:34:38.764Z,4.27
2022-11-30T12:37:14.849Z,4.30
2022-11-30T12:39:50.797Z,4.30
2022-11-30T12:42:26.551Z,4.40
2022-11-30T12:45:01.951Z,4.60
2022-11-30T12:47:43.504Z,4.60
2022-11-30T12:50:34.317Z,4.77
2022-11-30T12:53:14.427Z,4.63
2022-11-30T12:55:49.331Z,4.43
2022-11-30T12:58:30.123Z,3.80
2022-11-30T13:01:11.101Z,3.97
2022-11-30T13:03:54.559Z,4.40
2022-11-30T13:06:27.493Z,5.23
2022-11-30T13:09:02.213Z,3.93
2022-11-30T13:11:35.935Z,4.20
2022-11-30T13:14:10.460Z,4.50
2022-11-30T13:16:39.251Z,3.93
2022-11-30T13:19:21.727Z,4.50
2022-11-30T13:21:54.925Z,3.50
2022-11-30T13:24:28.825Z,4.83
2022-11-30T13:27:01.815Z,4.10
2022-11-30T13:29:51.553Z,2.80
2022-11-30T13:32:56.028Z,3.30
2022-11-30T13:35:42.519Z,2.57
2022-11-30T13:41:09.358Z,2.80
2022-11-30T13:43:41.826Z,3.00
2022-11-30T13:46:20.117Z,2.43
2022-11-30T13:48:48.452Z,2.30
2022-11-30T13:51:36.074Z,2.07
2022-11-30T13:54:38.084Z,2.00
2022-11-30T13:57:15.839Z,2.70
2022-11-30T13:59:48.266Z,2.70
2022-11-30T14:02:55.195Z,3.10
2022-11-30T14:05:25.944Z,2.70
2022-11-30T14:08:14.496Z,3.20
2022-11-30T14:10:43.722Z,3.60
2022-11-30T14:13:32.168Z,3.57
2022-11-30T14:16:01.635Z,3.63
2022-11-30T14:18:44.908Z,3.60
2022-11-30T14:21:20.814Z,3.17
2022-11-30T14:23:55.262Z,3.40
2022-11-30T14:26:28.436Z,3.60
2022-11-30T14:29:03.226Z,3.30
2022-11-30T14:31:37.706Z,3.40
2022-11-30T14:34:15.524Z,4.10
2022-11-30T14:36:47.625Z,3.30
2022-11-30T14:39:27.565Z,3.73
2022-11-30T14:41:55.587Z,2.80
2022-11-30T14:44:23.559Z,3.27
2022-11-30T14:46:51.846Z,3.47
2022-11-30T14:49:22.879Z,3.40
2022-11-30T14:51:53.677Z,3.80
2022-11-30T14:54:47.085Z,3.70
2022-11-30T14:57:23.563Z,3.53
2022-11-30T14:59:53.685Z,3.40
2022-11-30T15:02:30.453Z,4.20
2022-11-30T15:05:00.694Z,3.90
2022-11-30T15:07:30.169Z,4.40
2022-11-30T15:10:03.585Z,4.27
2022-11-30T15:12:31.731Z,3.90
2022-11-30T15:15:04.006Z,3.90
2022-11-30T15:17:32.144Z,4.60
2022-11-30T15:20:01.413Z,4.70
2022-11-30T15:22:35.816Z,4.47
2022-11-30T15:25:03.887Z,4.10
2022-11-30T15:27:32.041Z,4.27
2022-11-30T15:30:01.772Z,4.00
2022-11-30T15:32:30.019Z,4.20
2022-11-30T15:35:00.833Z,4.90
2022-11-30T15:37:32.714Z,4.30
2022-11-30T15:40:02.992Z,4.60
2022-11-30T15:42:39.753Z,4.63
2022-11-30T15:45:18.489Z,4.70
2022-11-30T15:47:46.402Z,3.80
2022-11-30T15:50:36.024Z,4.07
2022-11-30T15:53:32.281Z,3.80
2022-11-30T15:56:03.089Z,3.30
2022-11-30T15:58:39.588Z,3.07
2022-11-30T16:01:11.429Z,3.10
2022-11-30T16:04:01.695Z,2.97
2022-11-30T16:06:31.837Z,3.40
2022-11-30T16:09:06.334Z,3.70
2022-11-30T16:11:37.907Z,3.47
2022-11-30T16:14:05.829Z,3.00
2022-11-30T16:16:34.039Z,2.70
2022-11-30T16:19:01.973Z,2.83
2022-11-30T16:21:29.845Z,2.30
2022-11-30T16:23:57.734Z,2.40
2022-11-30T16:26:49.942Z,2.37
2022-11-30T16:29:14.809Z,2.80
2022-11-30T16:31:42.824Z,2.80
2022-11-30T16:34:12.795Z,2.77
2022-11-30T16:36:40.672Z,2.47
2022-11-30T16:39:12.198Z,2.60
2022-11-30T16:41:41.566Z,2.97
2022-11-30T16:44:14.184Z,2.93
2022-11-30T16:46:42.382Z,3.47
2022-11-30T16:49:10.353Z,3.20
2022-11-30T16:51:38.460Z,3.00
2022-11-30T16:54:06.610Z,2.80
2022-11-30T16:56:34.479Z,2.73
2022-11-30T16:59:03.686Z,2.67
2022-11-30T17:01:36.116Z,2.63
2022-11-30T17:04:08.821Z,2.90
2022-11-30T17:06:36.728Z,2.90
2022-11-30T17:09:04.841Z,2.60
2022-11-30T17:11:35.980Z,2.53
2022-11-30T17:14:05.562Z,2.90
2022-11-30T17:16:33.907Z,2.67
2022-11-30T17:19:01.898Z,2.80
2022-11-30T17:21:33.643Z,2.57
2022-11-30T17:24:01.554Z,2.73
2022-11-30T17:26:30.275Z,3.20
2022-11-30T17:28:58.220Z,2.20
2022-11-30T17:31:27.537Z,2.30
2022-11-30T17:33:55.518Z,2.87
2022-11-30T17:36:23.494Z,2.67
2022-11-30T17:38:51.364Z,3.20
2022-11-30T17:41:21.872Z,2.70
2022-11-30T17:43:50.341Z,2.83
2022-11-30T17:46:19.641Z,2.70
2022-11-30T17:48:49.656Z,2.90
2022-11-30T17:51:17.632Z,3.53
2022-11-30T17:53:45.610Z,2.80
2022-11-30T17:56:15.950Z,2.90
2022-11-30T17:58:45.469Z,2.90
2022-11-30T18:01:18.411Z,3.20
2022-11-30T18:03:48.155Z,3.50
2022-11-30T18:06:16.714Z,2.53
2022-11-30T18:08:44.999Z,3.13
2022-11-30T18:11:14.535Z,3.87
2022-11-30T18:13:42.795Z,4.00
2022-11-30T18:16:13.448Z,3.10
2022-11-30T18:18:47.136Z,3.00
2022-11-30T18:21:19.012Z,3.20
2022-11-30T18:23:47.001Z,3.50
2022-11-30T18:26:16.726Z,3.33
2022-11-30T18:28:45.119Z,3.00
2022-11-30T18:31:13.223Z,3.10
2022-11-30T18:33:41.310Z,3.10
2022-11-30T18:36:10.166Z,2.80
2022-11-30T18:38:41.444Z,3.20
2022-11-30T18:41:09.528Z,3.63
2022-11-30T18:43:38.738Z,3.60
2022-11-30T18:46:08.685Z,3.70
2022-11-30T18:48:37.654Z,3.80
2022-11-30T18:51:12.500Z,3.50
2022-11-30T18:53:42.490Z,3.57
2022-11-30T18:56:13.060Z,3.93
2022-11-30T18:58:41.211Z,3.70
2022-11-30T19:01:10.094Z,4.20
2022-11-30T19:03:38.552Z,4.20
2022-11-30T19:06:07.879Z,4.00
2022-11-30T19:08:36.072Z,4.47
2022-11-30T19:11:07.073Z,4.07
2022-11-30T19:13:35.245Z,3.90
2022-11-30T19:16:04.007Z,4.00
2022-11-30T19:18:32.639Z,3.73
2022-11-30T19:21:00.852Z,4.13
2022-11-30T19:23:29.007Z,4.87
2022-11-30T19:26:01.655Z,4.50
2022-11-30T19:28:32.006Z,4.37
2022-11-30T19:31:00.759Z,3.53
2022-11-30T19:33:29.072Z,3.80
2022-11-30T19:36:01.553Z,4.20
2022-11-30T19:38:29.475Z,4.20
2022-11-30T19:40:57.388Z,4.13
2022-11-30T19:43:25.350Z,4.40
2022-11-30T19:45:54.578Z,4.73
2022-11-30T19:48:22.506Z,5.30
2022-11-30T19:50:50.346Z,5.20
2022-11-30T19:53:18.203Z,5.20
2022-11-30T19:55:46.060Z,5.60
2022-11-30T19:58:13.960Z,5.13
2022-11-30T20:00:41.845Z,4.60
2022-11-30T20:03:11.107Z,5.30
2022-11-30T20:05:39.338Z,5.40
2022-11-30T20:08:07.729Z,5.50
2022-11-30T20:10:35.649Z,6.87
2022-11-30T20:13:03.515Z,6.10
2022-11-30T20:15:31.432Z,5.90
2022-11-30T20:17:59.339Z,6.83
2022-11-30T20:20:28.574Z,6.83
2022-11-30T20:22:56.466Z,5.77
2022-11-30T20:25:24.366Z,5.93
2022-11-30T20:27:52.295Z,5.20
2022-11-30T20:30:20.362Z,6.23
2022-11-30T20:32:48.258Z,5.80
2022-11-30T20:35:16.271Z,6.07
2022-11-30T20:37:45.506Z,5.90
2022-11-30T20:40:13.758Z,6.03
2022-11-30T20:42:41.756Z,5.90
2022-11-30T20:45:09.947Z,5.63
2022-11-30T20:47:37.803Z,5.93
2022-11-30T20:50:07.049Z,5.70
2022-11-30T20:52:35.263Z,5.30
2022-11-30T20:55:04.549Z,5.50
2022-11-30T20:57:32.434Z,5.37
2022-11-30T21:00:00.291Z,4.63
2022-11-30T21:02:28.226Z,4.53
2022-11-30T21:04:56.130Z,5.27
2022-11-30T21:07:24.091Z,5.60
2022-11-30T21:09:52.316Z,5.87
2022-11-30T21:12:21.532Z,5.40
2022-11-30T21:14:49.704Z,5.10
2022-11-30T21:17:17.720Z,5.63
2022-11-30T21:19:45.602Z,5.47
2022-11-30T21:22:13.475Z,5.93
2022-11-30T21:24:41.359Z,5.43
2022-11-30T21:27:09.369Z,5.43
2022-11-30T21:29:38.587Z,4.60
2022-11-30T21:32:06.604Z,5.60
2022-11-30T21:34:34.541Z,5.77
2022-11-30T21:37:02.437Z,5.30
2022-11-30T21:39:31.055Z,5.77
2022-11-30T21:41:59.032Z,5.40
2022-11-30T21:44:26.896Z,5.97
2022-11-30T21:46:56.166Z,5.30
2022-11-30T21:49:24.438Z,5.27
2022-11-30T21:51:52.347Z,5.83
2022-11-30T21:54:20.320Z,6.10
2022-11-30T21:56:52.236Z,5.83
2022-11-30T21:59:20.371Z,5.73
2022-11-30T22:01:48.255Z,5.90
2022-11-30T22:04:17.655Z,5.30
2022-11-30T22:06:45.936Z,5.40
2022-11-30T22:09:15.775Z,5.70
2022-11-30T22:11:45.537Z,5.53
2022-11-30T22:14:15.576Z,5.40
2022-11-30T22:16:43.974Z,5.73
2022-11-30T22:19:11.913Z,4.87
2022-11-30T22:21:45.367Z,5.60
2022-11-30T22:24:16.297Z,5.33
2022-11-30T22:26:45.360Z,4.83
2022-11-30T22:29:15.373Z,5.33
2022-11-30T22:31:45.224Z,4.83
2022-11-30T22:34:13.248Z,6.10
2022-11-30T22:36:44.067Z,5.57
2022-11-30T22:39:13.856Z,6.10
2022-11-30T22:41:43.308Z,6.80
2022-11-30T22:44:13.503Z,5.93
2022-11-30T22:46:41.528Z,6.43
2022-11-30T22:49:15.884Z,6.23
2022-11-30T22:51:48.019Z,6.00
2022-11-30T22:54:16.075Z,6.60
2022-11-30T22:56:46.160Z,5.87
2022-11-30T22:59:15.199Z,6.47
2022-11-30T23:01:44.800Z,5.83
2022-11-30T23:04:14.552Z,6.13
2022-11-30T23:06:44.163Z,5.70
2022-11-30T23:09:16.130Z,7.00
2022-11-30T23:11:44.597Z,5.83
2022-11-30T23:14:13.093Z,5.93
2022-11-30T23:16:41.432Z,6.13
2022-11-30T23:19:10.114Z,5.20
2022-11-30T23:21:41.674Z,5.17
2022-11-30T23:24:14.336Z,6.30
2022-11-30T23:26:44.079Z,5.43
2022-11-30T23:29:14.014Z,6.10
2022-11-30T23:31:43.211Z,5.60
2022-11-30T23:34:13.471Z,5.33
2022-11-30T23:36:41.376Z,6.00
2022-11-30T23:39:11.783Z,6.00
2022-11-30T23:41:40.394Z,5.87
2022-11-30T23:44:10.093Z,5.77
2022-11-30T23:46:38.279Z,6.30
2022-11-30T23:49:06.466Z,6.17
2022-11-30T23:51:34.331Z,5.57
2022-11-30T23:54:02.253Z,6.33
2022-11-30T23:56:30.111Z,5.93
2022-11-30T23:58:58.161Z,6.23
